Marquisville, Iowa
Current Conditions -  °F | °C
As of 5:55 PM on Friday 19 Dec 2014 (Local Time) from KIKV Reporting Station
Overcast Overcast  
Wind Chill: 26°   Ceiling: 1000
Heat Index: 32°   Visibility: 9mi
Dew Point: 28°   Wind: 7mph
Humidity: 87%   Direction: 130°SE
Pressure: 30.21"   Gusts: NA
Location:  41.6547°N, 93.6196°W
Report Text: KIKV 192355Z AUTO 13006KT 9SM OVC010 M00/M02 A3021 RMK AO2
Loading
Personal Weather Stations






























Interactive Weather Map New forecast layout! Learn more

10-Day Weather Forecast

Advertisements
Track Severe Weather on mobile